Time;durP1;ratioP1;P1;durP2;ratioP2;P2;SDS_P1;SDS_P2;PMS_P1;PMS_P2;Temp;Humidity;BMP_temperature;BMP_pressure;BME280_temperature;BME280_humidity;BME280_pressure;Samples;Min_cycle;Max_cycle;Signal;HPM_P1;HPM_P2
2022/05/21 00:00:11;;;;;;;2.55;0.50;;;;;;;15.79;72.45;100601.94;7395451;19;20497;-69
2022/05/21 00:02:40;;;;;;;2.78;0.80;;;;;;;15.74;74.01;100602.16;7397912;19;20021;-68
2022/05/21 00:05:09;;;;;;;0.70;0.47;;;;;;;15.71;72.77;100622.59;7397742;19;20014;-69
2022/05/21 00:07:38;;;;;;;3.60;0.60;;;;;;;15.68;73.23;100602.44;7397744;19;20024;-68
2022/05/21 00:10:07;;;;;;;2.22;0.70;;;;;;;15.65;73.59;100607.88;7396030;19;20496;-70
2022/05/21 00:12:36;;;;;;;2.65;1.00;;;;;;;15.63;74.39;100628.22;7397923;19;20039;-71
2022/05/21 00:15:04;;;;;;;2.33;0.80;;;;;;;15.61;73.71;100609.78;7395430;19;20035;-70
2022/05/21 00:17:35;;;;;;;1.98;0.80;;;;;;;15.61;74.69;100615.06;7397582;19;20014;-69
2022/05/21 00:20:03;;;;;;;1.10;0.95;;;;;;;15.63;74.57;100628.22;7395344;19;20018;-68
2022/05/21 00:22:32;;;;;;;1.55;0.80;;;;;;;15.63;74.05;100622.94;7395423;19;20038;-68
2022/05/21 00:25:00;;;;;;;0.75;0.70;;;;;;;15.63;71.38;100638.81;7395281;19;20018;-68
2022/05/21 00:27:28;;;;;;;2.05;0.68;;;;;;;15.63;69.53;100659.94;7396894;19;20035;-73
2022/05/21 00:29:56;;;;;;;0.52;0.50;;;;;;;15.63;69.04;100670.53;7395843;19;20039;-67
2022/05/21 00:32:24;;;;;;;0.60;0.60;;;;;;;15.65;69.08;100631.66;7396659;19;20031;-69
2022/05/21 00:34:55;;;;;;;2.20;0.60;;;;;;;15.65;69.46;100636.97;7396689;19;20027;-70
2022/05/21 00:37:23;;;;;;;1.15;0.60;;;;;;;15.64;69.65;100627.31;7396994;19;20014;-69
2022/05/21 00:39:51;;;;;;;1.65;0.63;;;;;;;15.63;69.67;100647.59;7395437;19;20022;-68
2022/05/21 00:42:19;;;;;;;2.20;0.60;;;;;;;15.61;68.93;100652.09;7396429;19;20039;-67
2022/05/21 00:44:47;;;;;;;1.00;0.68;;;;;;;15.59;68.26;100668.97;7394694;19;20031;-68
2022/05/21 00:47:16;;;;;;;2.35;0.70;;;;;;;15.56;68.58;100653.25;7396250;19;20019;-68
2022/05/21 00:49:45;;;;;;;1.67;0.70;;;;;;;15.53;67.37;100664.81;7395243;19;20036;-69
2022/05/21 00:52:20;;;;;;;2.95;0.50;;;;;;;15.53;68.51;100679.81;7396095;19;20058;-68
2022/05/21 00:54:51;;;;;;;3.22;0.52;;;;;;;15.50;68.02;100674.66;7394851;19;20022;-69
2022/05/21 00:57:24;;;;;;;0.47;0.43;;;;;;;15.43;68.01;100689.91;7394863;19;20014;-68
2022/05/21 00:59:56;;;;;;;1.88;0.60;;;;;;;15.39;67.99;100678.63;7394428;19;20035;-69
2022/05/21 01:02:29;;;;;;;2.83;0.60;;;;;;;15.34;67.35;100691.16;7395161;19;20357;-68
2022/05/21 01:04:59;;;;;;;3.45;0.63;;;;;;;15.28;67.63;100691.44;7394583;19;20018;-70
2022/05/21 01:07:30;;;;;;;0.82;0.60;;;;;;;15.25;68.72;100681.00;7395682;19;20010;-69
2022/05/21 01:10:01;;;;;;;2.58;0.57;;;;;;;15.20;68.10;100712.03;7394943;19;20019;-69
2022/05/21 01:12:41;;;;;;;1.30;0.80;;;;;;;15.17;68.68;100722.75;7395980;19;20015;-69
2022/05/21 01:15:13;;;;;;;5.03;0.93;;;;;;;15.15;68.88;100691.94;7392001;19;20015;-69
2022/05/21 01:17:42;;;;;;;0.82;0.70;;;;;;;15.16;69.18;100719.22;7395165;19;20473;-69
2022/05/21 01:20:13;;;;;;;1.15;0.75;;;;;;;15.14;69.27;100708.72;7394188;19;20015;-69
2022/05/21 01:22:46;;;;;;;2.90;1.00;;;;;;;15.15;69.08;100725.44;7395524;19;20010;-68
2022/05/21 01:25:24;;;;;;;2.17;0.98;;;;;;;15.12;69.00;100730.84;7395299;19;20022;-69
2022/05/21 01:27:54;;;;;;;1.48;0.90;;;;;;;15.10;68.99;100746.78;7393723;19;20023;-68
2022/05/21 01:30:25;;;;;;;2.15;1.00;;;;;;;15.06;68.80;100739.88;7393717;19;20032;-68
2022/05/21 01:32:53;;;;;;;1.63;1.30;;;;;;;15.04;69.25;100739.09;7395048;19;20027;-68
2022/05/21 01:35:22;;;;;;;3.28;1.50;;;;;;;15.00;68.93;100742.78;7394977;19;20011;-69
2022/05/21 01:37:52;;;;;;;2.67;1.15;;;;;;;14.97;69.04;100749.06;7394957;19;20031;-68
2022/05/21 01:40:21;;;;;;;2.88;1.38;;;;;;;14.96;68.58;100767.59;7393575;19;20015;-68
2022/05/21 01:44:37;;;;;;;1.50;1.08;;;;;;;14.95;69.44;100757.94;7392941;19;20130;-67
2022/05/21 01:45:36;;;;;;;1.60;1.38;;;;;;;14.89;69.10;100764.34;7394198;19;20484;-68
2022/05/21 01:48:06;;;;;;;2.60;1.40;;;;;;;14.89;68.53;100776.69;7395109;19;20010;-68
2022/05/21 01:50:34;;;;;;;2.35;1.10;;;;;;;14.85;68.50;100835.81;7392961;19;20026;-68
2022/05/21 01:53:05;;;;;;;2.33;1.20;;;;;;;14.83;68.55;100783.91;7394473;19;20042;-67
2022/05/21 01:55:34;;;;;;;1.80;1.27;;;;;;;14.80;68.86;100791.13;7395333;19;20039;-70
2022/05/21 01:58:02;;;;;;;2.60;1.25;;;;;;;14.78;69.29;100777.94;7393045;19;20010;-66
2022/05/21 02:00:30;;;;;;;2.70;1.40;;;;;;;14.80;69.73;100789.34;7392044;19;20026;-68
2022/05/21 02:02:58;;;;;;;5.00;1.40;;;;;;;14.76;69.78;100779.81;7392201;19;20039;-68
2022/05/21 02:05:27;;;;;;;4.65;1.50;;;;;;;14.76;70.04;100789.50;7391859;19;20529;-67
2022/05/21 02:07:55;;;;;;;3.58;1.50;;;;;;;14.72;70.24;100790.53;7394218;19;20015;-68
2022/05/21 02:10:25;;;;;;;3.30;1.98;;;;;;;14.71;70.69;100781.78;7391933;19;20022;-67
2022/05/21 02:12:54;;;;;;;2.55;1.42;;;;;;;14.69;70.95;100782.75;7394386;19;20031;-68
2022/05/21 02:15:22;;;;;;;2.50;1.95;;;;;;;14.66;71.25;100796.94;7392091;19;20011;-67
2022/05/21 02:17:50;;;;;;;5.38;1.80;;;;;;;14.63;70.98;100810.19;7391754;19;20031;-67
2022/05/21 02:20:18;;;;;;;1.75;1.50;;;;;;;14.58;70.53;100806.88;7391382;19;20019;-67
2022/05/21 02:22:46;;;;;;;4.13;1.98;;;;;;;14.53;70.63;100814.09;7393083;19;20497;-67
2022/05/21 02:25:16;;;;;;;2.58;1.70;;;;;;;14.52;71.00;100807.97;7393444;19;20023;-67
2022/05/21 02:27:47;;;;;;;3.90;2.00;;;;;;;14.50;70.77;100820.38;7397342;19;20485;-67
2022/05/21 02:30:16;;;;;;;1.90;1.60;;;;;;;14.50;71.26;100818.56;7398378;19;20015;-67
2022/05/21 02:32:44;;;;;;;2.72;1.73;;;;;;;14.50;71.46;100836.22;7398117;19;20022;-68
2022/05/21 02:35:12;;;;;;;2.40;1.80;;;;;;;14.45;71.35;100825.81;7400752;19;20026;-68
2022/05/21 02:40:21;;;;;;;3.22;2.20;;;;;;;14.40;71.34;100809.28;7399091;19;20022;-67
2022/05/21 02:42:52;;;;;;;3.00;2.03;;;;;;;14.40;71.74;100830.38;7400379;19;20018;-67
2022/05/21 02:45:23;;;;;;;5.40;2.15;;;;;;;14.40;71.87;100826.91;7400949;19;20020;-67
2022/05/21 02:47:51;;;;;;;4.82;2.85;;;;;;;14.40;71.62;100832.19;7400745;19;20022;-67
2022/05/21 02:50:22;;;;;;;3.67;1.98;;;;;;;14.38;71.90;100831.38;7398632;19;20042;-67
2022/05/21 02:52:51;;;;;;;2.13;1.90;;;;;;;14.39;72.27;100846.28;7397364;19;20359;-67
2022/05/21 02:55:20;;;;;;;3.58;2.20;;;;;;;14.39;72.51;100886.72;7400036;19;20018;-67
2022/05/21 02:57:48;;;;;;;2.38;2.17;;;;;;;14.34;71.86;100867.56;7397489;19;20039;-67
2022/05/21 03:00:23;;;;;;;2.67;2.38;;;;;;;14.24;71.97;100868.81;7397257;19;20015;-68
2022/05/21 03:02:51;;;;;;;3.00;2.50;;;;;;;14.18;71.96;100883.09;7400190;19;20035;-66
2022/05/21 03:05:19;;;;;;;5.57;2.75;;;;;;;14.09;72.03;100889.53;7399714;19;20027;-68
2022/05/21 03:07:50;;;;;;;3.45;2.30;;;;;;;14.00;71.25;100868.72;7399589;19;20018;-68
2022/05/21 03:10:22;;;;;;;2.47;2.28;;;;;;;13.96;71.64;100893.50;7398086;19;20018;-68
2022/05/21 03:12:55;;;;;;;4.20;2.33;;;;;;;13.88;71.34;100896.38;7396892;19;20358;-68
2022/05/21 03:15:29;;;;;;;3.35;2.20;;;;;;;13.83;71.92;100899.16;7396939;19;20014;-68
2022/05/21 03:17:57;;;;;;;4.22;1.95;;;;;;;13.76;72.22;100897.66;7399733;19;20031;-68
2022/05/21 03:20:25;;;;;;;2.92;1.77;;;;;;;13.71;71.57;100928.59;7396712;19;20031;-68
2022/05/21 03:22:54;;;;;;;2.35;1.63;;;;;;;13.66;71.71;100909.41;7399070;19;20036;-68
2022/05/21 03:25:23;;;;;;;2.03;1.80;;;;;;;13.59;72.30;100916.66;7399061;19;20022;-68
2022/05/21 03:27:51;;;;;;;2.45;1.77;;;;;;;13.47;71.72;100962.72;7398929;19;20018;-68
2022/05/21 03:30:22;;;;;;;4.32;2.17;;;;;;;13.43;71.98;100932.06;7396543;19;20039;-67
2022/05/21 03:32:53;;;;;;;5.78;2.05;;;;;;;13.40;72.30;100937.44;7396664;19;20024;-68
2022/05/21 03:35:22;;;;;;;3.03;2.00;;;;;;;13.38;72.50;100935.78;7397030;19;20019;-67
2022/05/21 03:37:51;;;;;;;3.58;2.35;;;;;;;13.35;72.01;100984.13;7397761;19;20018;-67
2022/05/21 03:40:23;;;;;;;2.47;1.98;;;;;;;13.34;72.30;100969.22;7396360;19;20502;-67
2022/05/21 03:42:51;;;;;;;3.25;2.28;;;;;;;13.34;72.91;100958.69;7398018;19;20469;-68
2022/05/21 03:45:20;;;;;;;3.78;2.60;;;;;;;13.31;72.54;100954.34;7398401;19;20022;-67
2022/05/21 03:47:48;;;;;;;2.47;1.70;;;;;;;13.32;72.67;100971.03;7398265;19;20022;-68
2022/05/21 03:50:21;;;;;;;2.83;2.45;;;;;;;13.28;72.72;100964.13;7396106;19;20019;-68
2022/05/21 03:52:50;;;;;;;4.55;2.30;;;;;;;13.29;73.05;100971.13;7396280;19;20022;-68
2022/05/21 03:55:19;;;;;;;6.50;2.50;;;;;;;13.26;73.08;100973.88;7396116;19;20039;-68
2022/05/21 03:57:47;;;;;;;4.43;2.40;;;;;;;13.24;72.80;100983.56;7398006;19;20387;-68
2022/05/21 04:00:23;;;;;;;3.50;2.53;;;;;;;13.19;73.22;100975.78;7396514;19;20035;-67
2022/05/21 04:02:51;;;;;;;2.78;2.35;;;;;;;13.19;73.56;100987.22;7395741;19;20031;-67
2022/05/21 04:05:22;;;;;;;4.40;2.50;;;;;;;13.19;73.64;100999.50;7397489;19;20379;-68
2022/05/21 04:07:50;;;;;;;2.92;2.40;;;;;;;13.17;73.41;100986.38;7396093;19;20022;-68
2022/05/21 04:10:20;;;;;;;2.17;2.00;;;;;;;13.17;73.66;101015.38;7395717;19;20015;-67
2022/05/21 04:12:48;;;;;;;3.80;1.90;;;;;;;13.18;73.64;101001.28;7395498;19;20040;-67
2022/05/21 04:15:17;;;;;;;3.00;1.88;;;;;;;13.17;73.01;101025.06;7395187;19;20018;-68
2022/05/21 04:17:45;;;;;;;1.95;1.73;;;;;;;13.18;73.33;101003.94;7397354;19;20014;-67
2022/05/21 04:20:17;;;;;;;2.63;1.85;;;;;;;13.14;72.51;101026.00;7395332;19;20026;-67
2022/05/21 04:22:47;;;;;;;2.35;2.15;;;;;;;13.15;72.84;101017.16;7395990;19;20018;-68
2022/05/21 04:25:16;;;;;;;3.33;1.75;;;;;;;13.13;73.08;101045.34;7397686;19;20400;-70
2022/05/21 04:27:45;;;;;;;2.35;1.80;;;;;;;13.12;73.34;101038.34;7396773;19;20010;-67
2022/05/21 04:30:17;;;;;;;4.70;1.92;;;;;;;13.11;73.21;101043.66;7394996;19;20026;-66
2022/05/21 04:32:46;;;;;;;5.82;2.45;;;;;;;13.06;71.61;101108.78;7398367;19;20021;-67
2022/05/21 04:35:15;;;;;;;1.90;1.70;;;;;;;13.07;72.17;101060.44;7396481;19;20014;-67
2022/05/21 04:37:44;;;;;;;2.17;1.50;;;;;;;13.07;72.41;101048.13;7396142;19;20418;-66
2022/05/21 04:40:18;;;;;;;1.92;1.73;;;;;;;13.07;71.84;101053.41;7394464;19;20026;-66
2022/05/21 04:42:46;;;;;;;1.70;1.50;;;;;;;13.08;72.07;101057.78;7394346;19;20022;-66
2022/05/21 04:45:16;;;;;;;3.47;1.75;;;;;;;13.07;69.30;101081.50;7394403;19;20026;-66
2022/05/21 04:47:45;;;;;;;1.75;1.20;;;;;;;13.07;68.90;101070.97;7394907;19;20010;-66
2022/05/21 04:50:13;;;;;;;1.23;1.10;;;;;;;13.06;67.92;101085.91;7392206;19;20498;-66
2022/05/21 04:52:42;;;;;;;2.65;1.33;;;;;;;13.07;67.97;101081.50;7394096;19;20021;-66
2022/05/21 04:55:11;;;;;;;3.58;1.33;;;;;;;13.04;66.57;101121.97;7394229;19;20019;-65
2022/05/21 04:57:42;;;;;;;1.92;1.10;;;;;;;13.02;66.48;101100.94;7394122;19;20069;-66
2022/05/21 05:00:11;;;;;;;3.55;1.42;;;;;;;13.04;66.80;101104.41;7394546;19;20481;-68
2022/05/21 05:02:39;;;;;;;2.50;1.20;;;;;;;13.02;66.58;101106.19;7394458;19;20039;-67
2022/05/21 05:05:08;;;;;;;2.20;1.55;;;;;;;13.00;66.71;101096.63;7394191;19;20018;-68
2022/05/21 05:07:36;;;;;;;1.42;1.10;;;;;;;12.99;67.16;101111.56;7396106;19;20066;-67
2022/05/21 05:10:27;;;;;;;2.45;1.33;;;;;;;12.98;66.76;101103.72;7394445;19;20021;-67
2022/05/21 05:12:58;;;;;;;1.88;1.20;;;;;;;12.98;66.40;101115.09;7395442;19;20018;-66
2022/05/21 05:15:32;;;;;;;4.70;1.20;;;;;;;12.99;66.61;101129.13;7393164;19;20027;-67
2022/05/21 05:18:01;;;;;;;2.20;1.30;;;;;;;12.96;65.62;101131.84;7394058;19;20022;-67
2022/05/21 05:20:30;;;;;;;1.48;1.35;;;;;;;12.92;65.72;101138.09;7392986;19;20508;-67
2022/05/21 05:22:58;;;;;;;2.40;1.50;;;;;;;12.89;66.51;101131.16;7393744;19;20027;-67
2022/05/21 05:25:27;;;;;;;2.67;1.08;;;;;;;12.92;66.63;101130.19;7393451;19;20023;-67
2022/05/21 05:27:58;;;;;;;1.95;1.20;;;;;;;12.87;65.55;101120.63;7393400;19;20465;-69
2022/05/21 05:30:26;;;;;;;2.50;1.50;;;;;;;12.92;66.27;101138.09;7392792;19;20505;-67
2022/05/21 05:32:55;;;;;;;3.35;1.65;;;;;;;12.86;65.20;101147.88;7392729;19;20477;-67
2022/05/21 05:35:24;;;;;;;4.25;1.63;;;;;;;12.91;65.77;101128.47;7393139;19;20010;-67
2022/05/21 05:37:52;;;;;;;5.53;3.20;;;;;;;12.91;65.09;101149.53;7394609;19;20018;-66
2022/05/21 05:40:22;;;;;;;5.85;2.03;;;;;;;12.92;65.32;101133.69;7393484;19;20130;-67
2022/05/21 05:42:50;;;;;;;4.20;1.33;;;;;;;12.94;65.51;101131.00;7393308;19;20023;-67
2022/05/21 05:45:21;;;;;;;2.65;1.63;;;;;;;12.95;63.88;101135.38;7392966;19;20019;-67
2022/05/21 05:47:49;;;;;;;2.50;1.70;;;;;;;12.93;63.89;101135.41;7392229;19;20414;-67
2022/05/21 05:50:17;;;;;;;1.55;1.40;;;;;;;12.96;64.20;101147.66;7392422;19;20014;-67
2022/05/21 05:52:45;;;;;;;2.60;1.60;;;;;;;12.96;63.67;101127.44;7392506;19;20031;-66
2022/05/21 05:55:14;;;;;;;2.00;1.60;;;;;;;12.98;63.73;101130.91;7392449;19;20018;-67
2022/05/21 05:57:42;;;;;;;3.60;1.45;;;;;;;12.95;63.14;101128.31;7394634;19;20039;-66
2022/05/21 06:00:09;;;;;;;4.70;1.23;;;;;;;13.01;63.35;101132.59;7392416;19;20501;-66
2022/05/21 06:05:23;;;;;;;3.53;1.20;;;;;;;13.03;63.39;101123.75;7398149;19;20006;-67
2022/05/21 06:07:53;;;;;;;3.25;1.70;;;;;;;13.08;62.44;101139.44;7401960;19;20026;-67
2022/05/21 06:10:26;;;;;;;3.88;1.50;;;;;;;13.08;63.21;101128.91;7398352;19;20477;-67
2022/05/21 06:12:54;;;;;;;3.63;1.70;;;;;;;13.12;63.69;101130.53;7401712;19;20018;-67
2022/05/21 06:15:29;;;;;;;4.07;1.20;;;;;;;13.18;63.62;101134.78;7398121;19;20007;-67
2022/05/21 06:18:00;;;;;;;3.38;1.50;;;;;;;13.23;63.92;101146.09;7401107;19;20022;-67
2022/05/21 06:20:29;;;;;;;1.30;1.00;;;;;;;13.28;64.33;101149.44;7398391;19;20023;-67
2022/05/21 06:22:57;;;;;;;4.90;1.77;;;;;;;13.34;64.31;101137.88;7399096;19;20035;-67
2022/05/21 06:25:29;;;;;;;3.90;1.65;;;;;;;13.38;63.97;101155.34;7400558;19;20022;-67
2022/05/21 06:27:57;;;;;;;2.13;1.05;;;;;;;13.42;64.07;101151.75;7400550;19;20026;-67
2022/05/21 06:30:28;;;;;;;0.93;0.82;;;;;;;13.44;63.41;101155.19;7397920;19;20035;-67
2022/05/21 06:32:59;;;;;;;3.83;1.45;;;;;;;13.46;63.17;101149.91;7400681;19;20078;-67
2022/05/21 06:35:28;;;;;;;4.57;1.27;;;;;;;13.48;62.20;101156.84;7397517;19;20015;-68
2022/05/21 06:37:56;;;;;;;4.38;1.42;;;;;;;13.54;63.13;101158.44;7400037;19;20019;-68
2022/05/21 06:40:24;;;;;;;3.67;2.17;;;;;;;13.62;62.86;101142.41;7398178;19;20039;-67
2022/05/21 06:42:52;;;;;;;2.00;1.20;;;;;;;13.67;61.36;101178.31;7398284;19;20019;-68
2022/05/21 06:45:21;;;;;;;6.20;1.40;;;;;;;13.69;61.01;101162.44;7399672;19;20532;-67
2022/05/21 06:47:49;;;;;;;4.55;1.83;;;;;;;13.73;62.07;101152.66;7399394;19;20477;-68
2022/05/21 06:50:19;;;;;;;5.50;1.30;;;;;;;13.75;62.13;101142.91;7398012;19;20019;-67
2022/05/21 06:52:48;;;;;;;4.10;1.60;;;;;;;13.80;61.75;101152.44;7396885;19;20497;-67
2022/05/21 06:55:16;;;;;;;4.47;1.83;;;;;;;13.80;61.05;101168.28;7400624;19;20035;-67
2022/05/21 06:57:44;;;;;;;3.13;1.45;;;;;;;13.83;61.98;101148.84;7400660;19;20021;-68
2022/05/21 07:00:13;;;;;;;3.75;1.60;;;;;;;13.75;60.92;101164.91;7397211;19;20014;-68
2022/05/21 07:02:42;;;;;;;3.83;1.45;;;;;;;13.73;62.07;101150.03;7397224;19;20037;-67
2022/05/21 07:07:54;;;;;;;4.25;1.58;;;;;;;13.59;62.56;101163.59;7399345;19;20410;-68
2022/05/21 07:10:25;;;;;;;2.92;1.30;;;;;;;13.52;63.24;101150.59;7397855;19;20035;-68
2022/05/21 07:12:54;;;;;;;3.05;1.80;;;;;;;13.47;62.87;101165.66;7398061;19;20014;-67
2022/05/21 07:15:22;;;;;;;3.55;1.67;;;;;;;13.51;63.45;101158.53;7396288;19;20473;-68
2022/05/21 07:17:51;;;;;;;2.58;1.17;;;;;;;13.55;63.77;101183.03;7396709;19;20010;-67
2022/05/21 07:20:22;;;;;;;6.15;2.47;;;;;;;13.60;63.38;101149.53;7396959;19;20497;-67
2022/05/21 07:22:54;;;;;;;5.50;2.13;;;;;;;13.64;62.72;101173.09;7397895;19;20018;-67
2022/05/21 07:25:24;;;;;;;2.85;1.75;;;;;;;13.67;62.70;101162.47;7399107;19;20019;-67
2022/05/21 07:27:53;;;;;;;4.18;1.65;;;;;;;13.74;62.05;101164.94;7398319;19;20493;-67
2022/05/21 07:30:22;;;;;;;5.10;1.58;;;;;;;13.79;62.21;101171.81;7396195;19;20369;-68
2022/05/21 07:32:50;;;;;;;3.97;1.80;;;;;;;13.82;62.60;101165.59;7396275;19;20015;-66
2022/05/21 07:35:21;;;;;;;2.78;1.45;;;;;;;13.85;62.42;101158.44;7398416;19;20127;-66
2022/05/21 07:37:50;;;;;;;3.55;1.25;;;;;;;13.95;62.78;101152.91;7398648;19;20026;-67
2022/05/21 07:40:23;;;;;;;4.40;2.17;;;;;;;14.03;62.76;101148.28;7396445;19;20018;-67
2022/05/21 07:42:51;;;;;;;3.38;1.35;;;;;;;14.11;62.50;101146.25;7396572;19;20397;-67
2022/05/21 07:45:22;;;;;;;5.22;1.45;;;;;;;14.17;62.47;101150.50;7395973;19;20022;-67
2022/05/21 07:47:51;;;;;;;2.17;1.08;;;;;;;14.23;62.34;101145.03;7398414;19;20021;-68
2022/05/21 07:50:22;;;;;;;4.30;1.40;;;;;;;14.30;62.11;101143.06;7396522;19;20019;-67
2022/05/21 07:52:51;;;;;;;3.85;1.35;;;;;;;14.35;61.78;101141.13;7397526;19;20485;-67
2022/05/21 07:55:21;;;;;;;3.70;1.40;;;;;;;14.47;61.43;101132.00;7397746;19;20022;-67
2022/05/21 07:57:50;;;;;;;3.17;1.10;;;;;;;14.58;61.84;101142.19;7396120;19;20081;-68
2022/05/21 08:00:20;;;;;;;3.38;1.40;;;;;;;14.70;60.84;101139.19;7396228;19;20036;-67
2022/05/21 08:02:49;;;;;;;3.78;1.20;;;;;;;14.87;59.98;101143.06;7397100;19;20019;-67
2022/05/21 08:05:18;;;;;;;2.88;1.08;;;;;;;14.99;58.31;101121.50;7398704;19;20018;-67
2022/05/21 08:07:50;;;;;;;4.05;1.27;;;;;;;15.13;58.39;101128.97;7397305;19;20047;-67
2022/05/21 08:10:22;;;;;;;4.15;1.15;;;;;;;15.22;58.77;101146.28;7395869;19;20019;-67
2022/05/21 08:12:51;;;;;;;2.85;1.20;;;;;;;15.29;57.53;101126.63;7397086;19;20023;-67
2022/05/21 08:15:19;;;;;;;3.80;1.10;;;;;;;15.38;57.89;101125.44;7394757;19;20011;-67
2022/05/21 08:17:48;;;;;;;3.63;1.00;;;;;;;15.50;57.73;101134.72;7396021;19;20362;-67
2022/05/21 08:20:17;;;;;;;3.05;0.98;;;;;;;15.59;55.47;101137.03;7394847;19;20031;-67
2022/05/21 08:28:13;;;;;;;4.22;1.05;;;;;;;15.94;53.92;101124.31;7396723;19;20006;-68
2022/05/21 08:30:41;;;;;;;3.75;1.55;;;;;;;16.01;53.66;101123.16;7394983;19;20028;-68
2022/05/21 08:33:10;;;;;;;2.33;0.65;;;;;;;16.11;53.10;101128.94;7396102;19;20043;-68
2022/05/21 08:35:41;;;;;;;2.92;1.08;;;;;;;16.18;53.53;101119.00;7396172;19;20018;-67
2022/05/21 08:38:09;;;;;;;1.75;0.80;;;;;;;16.23;51.64;101132.91;7395405;19;20026;-68
2022/05/21 08:40:46;;;;;;;3.45;0.77;;;;;;;16.25;50.31;101117.81;7393719;19;20022;-68
2022/05/21 08:43:21;;;;;;;2.33;0.80;;;;;;;16.28;50.96;101115.06;7395162;19;20026;-67
2022/05/21 08:46:07;;;;;;;3.67;1.00;;;;;;;16.34;50.85;101112.16;7396136;19;20024;-68
2022/05/21 08:48:37;;;;;;;2.85;0.80;;;;;;;16.40;51.61;101111.03;7395393;19;20400;-68
2022/05/21 08:51:11;;;;;;;1.08;0.45;;;;;;;16.42;51.27;101120.66;7394122;19;20022;-68
2022/05/21 08:53:49;;;;;;;6.18;1.33;;;;;;;16.43;50.45;101119.72;7396266;19;20022;-67
2022/05/21 08:56:21;;;;;;;1.85;0.82;;;;;;;16.42;50.93;101107.41;7394500;19;20010;-68
2022/05/21 08:58:51;;;;;;;3.65;0.70;;;;;;;16.48;52.06;101108.09;7393670;19;20485;-68
2022/05/21 09:01:22;;;;;;;1.50;0.52;;;;;;;16.54;52.26;101127.25;7393837;19;20584;-68
2022/05/21 09:03:50;;;;;;;2.33;0.82;;;;;;;16.57;51.82;101123.63;7394330;19;20011;-68
2022/05/21 09:06:31;;;;;;;3.35;1.10;;;;;;;16.57;51.61;101108.56;7394159;19;20034;-68
2022/05/21 09:09:06;;;;;;;4.18;0.80;;;;;;;16.55;51.88;101114.84;7393995;19;20014;-67
2022/05/21 09:11:43;;;;;;;2.50;1.08;;;;;;;16.52;50.73;101104.41;7395756;19;20031;-68
2022/05/21 09:14:16;;;;;;;3.17;0.93;;;;;;;16.53;51.65;101122.88;7395129;19;20031;-68
2022/05/21 09:16:56;;;;;;;2.53;0.80;;;;;;;16.55;51.31;101115.72;7392928;19;20414;-68
2022/05/21 09:19:25;;;;;;;4.03;0.85;;;;;;;16.57;52.00;101105.94;7392960;19;20011;-67
2022/05/21 09:21:59;;;;;;;2.90;0.88;;;;;;;16.61;51.44;101104.03;7392937;19;20497;-68
2022/05/21 09:24:39;;;;;;;2.13;0.90;;;;;;;16.59;50.16;101098.78;7393294;19;20018;-67
2022/05/21 09:27:24;;;;;;;4.70;0.85;;;;;;;16.62;51.04;101097.81;7393381;19;20354;-69
2022/05/21 09:29:53;;;;;;;2.92;0.88;;;;;;;16.62;51.28;101100.44;7392435;19;20481;-69
2022/05/21 09:32:25;;;;;;;1.58;0.70;;;;;;;16.60;51.32;101086.41;7392906;19;20023;-67
2022/05/21 09:35:06;;;;;;;3.33;1.10;;;;;;;16.61;51.72;101099.56;7394272;19;20018;-68
2022/05/21 09:37:35;;;;;;;2.60;0.82;;;;;;;16.64;52.50;101103.03;7401917;19;20014;-67
2022/05/21 09:40:03;;;;;;;3.50;1.17;;;;;;;16.62;52.10;101103.09;7400065;19;20036;-68
2022/05/21 09:45:26;;;;;;;2.30;0.77;;;;;;;16.68;51.95;101107.25;7401759;19;20036;-68
2022/05/21 09:47:56;;;;;;;4.20;1.00;;;;;;;16.70;52.05;101095.69;7402369;19;20082;-67
2022/05/21 09:50:26;;;;;;;2.20;0.73;;;;;;;16.74;51.89;101120.25;7399065;19;20018;-67
2022/05/21 09:52:55;;;;;;;1.30;0.88;;;;;;;16.74;51.94;101094.66;7401539;19;20480;-66
2022/05/21 09:55:26;;;;;;;3.05;1.10;;;;;;;16.75;50.71;101090.19;7401914;19;20035;-67
2022/05/21 09:58:08;;;;;;;3.90;1.35;;;;;;;16.74;50.79;101104.38;7399599;19;20025;-66
2022/05/21 10:00:39;;;;;;;3.58;1.20;;;;;;;16.78;51.39;101106.81;7399456;19;20022;-66
2022/05/21 10:03:12;;;;;;;4.05;1.02;;;;;;;16.82;51.73;101111.97;7399262;19;20022;-67
2022/05/21 10:05:48;;;;;;;3.05;1.40;;;;;;;16.85;51.57;101107.41;7398675;19;20485;-67
2022/05/21 10:11:12;;;;;;;5.10;1.85;;;;;;;16.95;51.30;101102.63;7398778;19;20039;-67
2022/05/21 10:13:46;;;;;;;2.63;1.60;;;;;;;16.96;51.11;101099.06;7398924;19;20019;-67
2022/05/21 10:16:26;;;;;;;3.28;1.38;;;;;;;16.95;51.47;101113.22;7398108;19;20010;-67
2022/05/21 10:19:07;;;;;;;3.55;1.58;;;;;;;16.96;52.53;101104.38;7398419;19;20375;-67
2022/05/21 10:21:45;;;;;;;5.50;2.30;;;;;;;16.80;52.82;101158.91;7401053;19;20018;-66
2022/05/21 10:24:21;;;;;;;3.50;2.25;;;;;;;16.70;53.80;101116.88;7399075;19;20018;-66
2022/05/21 10:26:58;;;;;;;4.07;1.85;;;;;;;16.57;54.08;101128.91;7397537;19;20485;-67
2022/05/21 10:29:42;;;;;;;4.07;2.63;;;;;;;16.46;54.55;101131.97;7397632;19;20022;-68
2022/05/21 10:32:23;;;;;;;4.53;2.25;;;;;;;16.43;55.19;101119.72;7400547;19;20081;-67
2022/05/21 10:34:59;;;;;;;5.78;2.15;;;;;;;16.48;55.42;101124.84;7398361;19;20015;-68
2022/05/21 10:37:41;;;;;;;5.82;1.92;;;;;;;16.59;54.51;101133.22;7397359;19;20018;-68
2022/05/21 10:40:28;;;;;;;3.03;1.95;;;;;;;16.68;55.10;101105.50;7398529;19;20445;-68
2022/05/21 10:43:14;;;;;;;5.18;2.25;;;;;;;16.78;54.67;101106.81;7400079;19;20018;-67
2022/05/21 10:45:55;;;;;;;3.90;2.50;;;;;;;16.83;53.53;101113.72;7400683;19;20018;-68
2022/05/21 10:48:41;;;;;;;3.88;2.42;;;;;;;16.91;53.95;101111.66;7397755;19;20018;-68
2022/05/21 10:51:16;;;;;;;3.88;2.30;;;;;;;16.98;54.11;101114.88;7400125;19;20022;-68
2022/05/21 10:54:00;;;;;;;3.83;2.30;;;;;;;16.99;52.96;101103.38;7397268;19;20053;-68
2022/05/21 10:56:52;;;;;;;5.20;2.92;;;;;;;16.94;52.84;101098.25;7399762;19;20492;-67
2022/05/21 10:59:33;;;;;;;4.10;2.25;;;;;;;16.92;53.07;101106.28;7396410;19;20563;-68
2022/05/21 11:02:18;;;;;;;4.93;2.95;;;;;;;16.94;52.36;101122.09;7396936;19;20489;-68
2022/05/21 11:05:01;;;;;;;3.58;2.40;;;;;;;16.99;52.38;101101.56;7397223;19;20480;-68
2022/05/21 11:07:39;;;;;;;6.85;3.00;;;;;;;17.03;51.79;101105.81;7399821;19;20039;-68
2022/05/21 11:10:24;;;;;;;2.70;2.25;;;;;;;17.10;51.75;101098.47;7397885;19;20428;-67
2022/05/21 11:12:57;;;;;;;4.18;2.13;;;;;;;17.13;50.83;101100.13;7399866;19;20031;-68
2022/05/21 11:15:42;;;;;;;4.47;2.20;;;;;;;17.14;51.39;101093.91;7397054;19;20018;-68
2022/05/21 11:18:20;;;;;;;4.25;2.13;;;;;;;17.24;49.78;101092.56;7399407;19;20015;-68
2022/05/21 11:20:55;;;;;;;4.90;2.20;;;;;;;17.35;49.28;101127.41;7396587;19;20481;-68
2022/05/21 11:23:31;;;;;;;3.13;1.88;;;;;;;17.38;48.68;101119.31;7398573;19;20031;-67
2022/05/21 11:26:08;;;;;;;6.10;2.13;;;;;;;17.46;49.44;101099.56;7398933;19;20026;-67
2022/05/21 11:28:43;;;;;;;4.65;2.50;;;;;;;17.42;49.78;101097.03;7399441;19;20017;-67
2022/05/21 11:37:18;;;;;;;6.47;2.50;;;;;;;17.39;49.10;101097.16;7399044;19;20022;-68
2022/05/21 11:39:33;;;;;;;5.13;2.00;;;;;;;17.50;50.21;101087.88;7397573;19;20019;-68
2022/05/21 11:42:14;;;;;;;5.97;1.95;;;;;;;17.48;49.02;101100.31;7395969;19;20010;-68
2022/05/21 11:45:01;;;;;;;6.97;2.60;;;;;;;17.45;49.85;101095.16;7396612;19;20014;-68
2022/05/21 11:47:43;;;;;;;3.70;1.35;;;;;;;17.59;49.93;101106.88;7398267;19;20036;-68
2022/05/21 11:50:27;;;;;;;5.80;1.73;;;;;;;17.70;49.01;101079.84;7397043;19;20022;-68
2022/05/21 11:52:57;;;;;;;;;;;;;;;17.90;48.58;101084.22;7397022;19;20071;-68
2022/05/21 11:55:28;;;;;;;5.40;2.00;;;;;;;18.07;47.99;101104.72;7395601;19;20279;-68
2022/05/21 11:57:57;;;;;;;3.80;1.60;;;;;;;18.23;47.49;101072.09;7398990;19;20018;-68
2022/05/21 12:00:49;;;;;;;4.00;1.48;;;;;;;18.23;47.41;101077.41;7395182;19;20035;-68
2022/05/21 12:03:23;;;;;;;2.70;1.67;;;;;;;18.27;48.01;101089.59;7397194;19;20457;-68
2022/05/21 12:06:18;;;;;;;;;;;;;;;18.34;45.91;101069.78;7398908;19;20081;-68
2022/05/21 12:08:52;;;;;;;5.88;1.45;;;;;;;18.39;45.43;101082.84;7397846;19;19921;-68
2022/05/21 12:11:40;;;;;;;4.40;1.38;;;;;;;18.38;44.93;101079.31;7397999;19;20015;-68